sensor_id;sensor_type;location;lat;lon;timestamp;P1;durP1;ratioP1;P2;durP2;ratioP2
14102;SDS011;7129;48.832;12.472;2022-09-09T00:04:38;3.60;;;3.00;;
14102;SDS011;7129;48.832;12.472;2022-09-09T00:09:44;6.38;;;2.63;;
14102;SDS011;7129;48.832;12.472;2022-09-09T00:14:50;6.57;;;2.83;;
14102;SDS011;7129;48.832;12.472;2022-09-09T00:19:59;5.90;;;3.25;;
14102;SDS011;7129;48.832;12.472;2022-09-09T00:25:09;4.85;;;2.65;;
14102;SDS011;7129;48.832;12.472;2022-09-09T00:30:14;6.90;;;2.97;;
14102;SDS011;7129;48.832;12.472;2022-09-09T00:35:24;8.00;;;3.08;;
14102;SDS011;7129;48.832;12.472;2022-09-09T00:40:30;4.55;;;2.55;;
14102;SDS011;7129;48.832;12.472;2022-09-09T00:45:41;12.23;;;3.28;;
14102;SDS011;7129;48.832;12.472;2022-09-09T00:51:00;4.78;;;3.60;;
14102;SDS011;7129;48.832;12.472;2022-09-09T00:56:12;7.30;;;3.47;;
14102;SDS011;7129;48.832;12.472;2022-09-09T01:01:15;8.60;;;6.75;;
14102;SDS011;7129;48.832;12.472;2022-09-09T01:06:20;5.28;;;3.55;;
14102;SDS011;7129;48.832;12.472;2022-09-09T01:11:31;6.97;;;4.10;;
14102;SDS011;7129;48.832;12.472;2022-09-09T01:16:39;5.55;;;3.60;;
14102;SDS011;7129;48.832;12.472;2022-09-09T01:21:54;7.70;;;3.67;;
14102;SDS011;7129;48.832;12.472;2022-09-09T01:27:04;5.45;;;3.72;;
14102;SDS011;7129;48.832;12.472;2022-09-09T01:37:41;6.70;;;3.65;;
14102;SDS011;7129;48.832;12.472;2022-09-09T01:42:44;9.18;;;3.60;;
14102;SDS011;7129;48.832;12.472;2022-09-09T01:47:46;4.25;;;3.80;;
14102;SDS011;7129;48.832;12.472;2022-09-09T01:52:50;5.20;;;4.10;;
14102;SDS011;7129;48.832;12.472;2022-09-09T01:57:58;7.90;;;3.97;;
14102;SDS011;7129;48.832;12.472;2022-09-09T02:03:13;11.43;;;4.78;;
14102;SDS011;7129;48.832;12.472;2022-09-09T02:08:23;8.27;;;3.85;;
14102;SDS011;7129;48.832;12.472;2022-09-09T02:13:29;6.30;;;3.90;;
14102;SDS011;7129;48.832;12.472;2022-09-09T02:18:37;10.73;;;4.57;;
14102;SDS011;7129;48.832;12.472;2022-09-09T02:23:56;7.85;;;3.90;;
14102;SDS011;7129;48.832;12.472;2022-09-09T02:29:06;4.53;;;3.80;;
14102;SDS011;7129;48.832;12.472;2022-09-09T02:34:13;4.80;;;4.28;;
14102;SDS011;7129;48.832;12.472;2022-09-09T02:39:17;5.53;;;4.47;;
14102;SDS011;7129;48.832;12.472;2022-09-09T02:44:21;5.45;;;4.95;;
14102;SDS011;7129;48.832;12.472;2022-09-09T02:49:28;6.30;;;4.45;;
14102;SDS011;7129;48.832;12.472;2022-09-09T02:54:41;5.00;;;4.50;;
14102;SDS011;7129;48.832;12.472;2022-09-09T02:59:47;6.70;;;6.03;;
14102;SDS011;7129;48.832;12.472;2022-09-09T03:04:52;7.68;;;6.55;;
14102;SDS011;7129;48.832;12.472;2022-09-09T03:09:53;7.32;;;6.60;;
14102;SDS011;7129;48.832;12.472;2022-09-09T03:14:57;6.63;;;6.13;;
14102;SDS011;7129;48.832;12.472;2022-09-09T03:20:02;5.93;;;5.53;;
14102;SDS011;7129;48.832;12.472;2022-09-09T03:25:04;6.82;;;6.18;;
14102;SDS011;7129;48.832;12.472;2022-09-09T03:30:09;5.95;;;5.45;;
14102;SDS011;7129;48.832;12.472;2022-09-09T03:35:12;6.38;;;5.78;;
14102;SDS011;7129;48.832;12.472;2022-09-09T03:40:14;6.97;;;6.25;;
14102;SDS011;7129;48.832;12.472;2022-09-09T03:45:17;7.25;;;6.57;;
14102;SDS011;7129;48.832;12.472;2022-09-09T03:50:19;7.65;;;7.03;;
14102;SDS011;7129;48.832;12.472;2022-09-09T03:55:21;7.95;;;6.00;;
14102;SDS011;7129;48.832;12.472;2022-09-09T04:00:33;8.50;;;5.75;;
14102;SDS011;7129;48.832;12.472;2022-09-09T04:05:35;6.57;;;5.72;;
14102;SDS011;7129;48.832;12.472;2022-09-09T04:10:39;5.75;;;4.63;;
14102;SDS011;7129;48.832;12.472;2022-09-09T04:15:43;7.88;;;5.70;;
14102;SDS011;7129;48.832;12.472;2022-09-09T04:20:45;7.85;;;5.47;;
14102;SDS011;7129;48.832;12.472;2022-09-09T04:25:49;7.25;;;6.35;;
14102;SDS011;7129;48.832;12.472;2022-09-09T04:31:04;5.90;;;5.30;;
14102;SDS011;7129;48.832;12.472;2022-09-09T04:36:07;5.38;;;4.88;;
14102;SDS011;7129;48.832;12.472;2022-09-09T04:41:23;8.60;;;5.32;;
14102;SDS011;7129;48.832;12.472;2022-09-09T04:46:26;9.57;;;5.53;;
14102;SDS011;7129;48.832;12.472;2022-09-09T04:51:28;5.20;;;4.60;;
14102;SDS011;7129;48.832;12.472;2022-09-09T04:56:31;7.00;;;5.88;;
14102;SDS011;7129;48.832;12.472;2022-09-09T05:01:34;5.85;;;5.25;;
14102;SDS011;7129;48.832;12.472;2022-09-09T05:06:36;6.72;;;4.90;;
14102;SDS011;7129;48.832;12.472;2022-09-09T05:11:38;5.43;;;4.32;;
14102;SDS011;7129;48.832;12.472;2022-09-09T05:16:45;5.35;;;4.95;;
14102;SDS011;7129;48.832;12.472;2022-09-09T05:21:47;4.60;;;4.30;;
14102;SDS011;7129;48.832;12.472;2022-09-09T05:26:50;6.50;;;6.00;;
14102;SDS011;7129;48.832;12.472;2022-09-09T05:31:53;6.03;;;5.22;;
14102;SDS011;7129;48.832;12.472;2022-09-09T05:36:55;6.38;;;5.78;;
14102;SDS011;7129;48.832;12.472;2022-09-09T05:41:58;6.80;;;6.20;;
14102;SDS011;7129;48.832;12.472;2022-09-09T05:47:02;6.00;;;4.90;;
14102;SDS011;7129;48.832;12.472;2022-09-09T05:52:04;5.40;;;4.85;;
14102;SDS011;7129;48.832;12.472;2022-09-09T05:57:06;5.55;;;5.15;;
14102;SDS011;7129;48.832;12.472;2022-09-09T06:02:09;4.60;;;4.20;;
14102;SDS011;7129;48.832;12.472;2022-09-09T06:07:12;5.20;;;4.70;;
14102;SDS011;7129;48.832;12.472;2022-09-09T06:12:15;8.07;;;5.28;;
14102;SDS011;7129;48.832;12.472;2022-09-09T06:17:18;4.18;;;3.88;;
14102;SDS011;7129;48.832;12.472;2022-09-09T06:22:21;4.40;;;4.00;;
14102;SDS011;7129;48.832;12.472;2022-09-09T06:27:23;5.85;;;3.75;;
14102;SDS011;7129;48.832;12.472;2022-09-09T06:32:26;2.95;;;2.75;;
14102;SDS011;7129;48.832;12.472;2022-09-09T06:37:29;3.85;;;3.50;;
14102;SDS011;7129;48.832;12.472;2022-09-09T06:42:31;4.40;;;4.10;;
14102;SDS011;7129;48.832;12.472;2022-09-09T06:47:35;4.63;;;4.22;;
14102;SDS011;7129;48.832;12.472;2022-09-09T06:52:36;5.65;;;4.80;;
14102;SDS011;7129;48.832;12.472;2022-09-09T06:57:38;7.93;;;6.13;;
14102;SDS011;7129;48.832;12.472;2022-09-09T07:02:41;6.80;;;5.75;;
14102;SDS011;7129;48.832;12.472;2022-09-09T07:13:17;6.68;;;6.03;;
14102;SDS011;7129;48.832;12.472;2022-09-09T07:29:20;8.00;;;7.20;;
14102;SDS011;7129;48.832;12.472;2022-09-09T07:34:22;6.40;;;5.70;;
14102;SDS011;7129;48.832;12.472;2022-09-09T07:39:28;5.25;;;4.75;;
14102;SDS011;7129;48.832;12.472;2022-09-09T07:44:31;5.55;;;5.15;;
14102;SDS011;7129;48.832;12.472;2022-09-09T07:49:34;5.38;;;4.88;;
14102;SDS011;7129;48.832;12.472;2022-09-09T07:54:38;6.25;;;5.68;;
14102;SDS011;7129;48.832;12.472;2022-09-09T07:59:39;6.15;;;5.55;;
14102;SDS011;7129;48.832;12.472;2022-09-09T08:04:41;6.40;;;5.85;;
14102;SDS011;7129;48.832;12.472;2022-09-09T08:09:45;5.07;;;4.57;;
14102;SDS011;7129;48.832;12.472;2022-09-09T08:14:47;5.43;;;4.20;;
14102;SDS011;7129;48.832;12.472;2022-09-09T08:19:49;5.00;;;4.60;;
14102;SDS011;7129;48.832;12.472;2022-09-09T08:24:53;4.80;;;4.35;;
14102;SDS011;7129;48.832;12.472;2022-09-09T08:29:54;5.47;;;4.95;;
14102;SDS011;7129;48.832;12.472;2022-09-09T08:34:56;7.70;;;5.07;;
14102;SDS011;7129;48.832;12.472;2022-09-09T08:40:00;6.07;;;5.57;;
14102;SDS011;7129;48.832;12.472;2022-09-09T08:45:09;5.63;;;5.10;;
14102;SDS011;7129;48.832;12.472;2022-09-09T08:50:21;6.90;;;5.85;;
14102;SDS011;7129;48.832;12.472;2022-09-09T08:55:35;8.02;;;5.70;;
14102;SDS011;7129;48.832;12.472;2022-09-09T09:00:41;5.78;;;4.80;;
14102;SDS011;7129;48.832;12.472;2022-09-09T09:05:57;5.80;;;5.20;;
14102;SDS011;7129;48.832;12.472;2022-09-09T09:11:07;7.18;;;5.72;;
14102;SDS011;7129;48.832;12.472;2022-09-09T09:16:11;6.25;;;5.60;;
14102;SDS011;7129;48.832;12.472;2022-09-09T09:21:21;6.15;;;5.65;;
14102;SDS011;7129;48.832;12.472;2022-09-09T09:26:37;7.25;;;6.57;;
14102;SDS011;7129;48.832;12.472;2022-09-09T09:31:41;6.95;;;6.25;;
14102;SDS011;7129;48.832;12.472;2022-09-09T09:36:45;6.28;;;5.63;;
14102;SDS011;7129;48.832;12.472;2022-09-09T09:41:57;5.75;;;5.22;;
14102;SDS011;7129;48.832;12.472;2022-09-09T09:47:07;6.13;;;5.53;;
14102;SDS011;7129;48.832;12.472;2022-09-09T09:52:13;8.88;;;6.15;;
14102;SDS011;7129;48.832;12.472;2022-09-09T09:57:24;7.15;;;5.88;;
14102;SDS011;7129;48.832;12.472;2022-09-09T10:02:31;6.68;;;6.00;;
14102;SDS011;7129;48.832;12.472;2022-09-09T10:07:39;6.75;;;5.05;;
14102;SDS011;7129;48.832;12.472;2022-09-09T10:12:47;9.20;;;6.35;;
14102;SDS011;7129;48.832;12.472;2022-09-09T10:17:57;7.53;;;6.70;;
14102;SDS011;7129;48.832;12.472;2022-09-09T10:23:11;7.38;;;6.13;;
14102;SDS011;7129;48.832;12.472;2022-09-09T10:28:35;6.05;;;5.55;;
14102;SDS011;7129;48.832;12.472;2022-09-09T10:33:57;6.80;;;6.20;;
14102;SDS011;7129;48.832;12.472;2022-09-09T10:39:11;6.57;;;6.03;;
14102;SDS011;7129;48.832;12.472;2022-09-09T10:44:37;5.78;;;5.07;;
14102;SDS011;7129;48.832;12.472;2022-09-09T10:50:00;6.00;;;5.50;;
14102;SDS011;7129;48.832;12.472;2022-09-09T10:55:14;8.10;;;6.50;;
14102;SDS011;7129;48.832;12.472;2022-09-09T11:00:21;5.63;;;5.13;;
14102;SDS011;7129;48.832;12.472;2022-09-09T11:05:26;5.93;;;4.60;;
14102;SDS011;7129;48.832;12.472;2022-09-09T11:10:34;7.00;;;4.82;;
14102;SDS011;7129;48.832;12.472;2022-09-09T11:15:43;4.72;;;4.18;;
14102;SDS011;7129;48.832;12.472;2022-09-09T11:20:51;5.70;;;5.20;;
14102;SDS011;7129;48.832;12.472;2022-09-09T11:25:57;6.78;;;5.93;;
14102;SDS011;7129;48.832;12.472;2022-09-09T11:31:10;7.43;;;6.75;;
14102;SDS011;7129;48.832;12.472;2022-09-09T11:36:34;6.07;;;5.57;;
14102;SDS011;7129;48.832;12.472;2022-09-09T11:41:53;6.35;;;5.22;;
14102;SDS011;7129;48.832;12.472;2022-09-09T11:47:16;4.88;;;4.47;;
14102;SDS011;7129;48.832;12.472;2022-09-09T11:52:24;4.20;;;3.85;;
14102;SDS011;7129;48.832;12.472;2022-09-09T11:57:39;3.70;;;2.90;;
14102;SDS011;7129;48.832;12.472;2022-09-09T12:02:48;3.83;;;2.72;;
14102;SDS011;7129;48.832;12.472;2022-09-09T12:07:51;4.13;;;2.80;;
14102;SDS011;7129;48.832;12.472;2022-09-09T12:13:07;3.78;;;2.65;;
14102;SDS011;7129;48.832;12.472;2022-09-09T12:18:14;3.63;;;2.53;;
14102;SDS011;7129;48.832;12.472;2022-09-09T12:23:19;3.28;;;2.55;;
14102;SDS011;7129;48.832;12.472;2022-09-09T12:28:46;2.10;;;1.92;;
14102;SDS011;7129;48.832;12.472;2022-09-09T12:33:55;4.57;;;2.35;;
14102;SDS011;7129;48.832;12.472;2022-09-09T12:39:12;2.00;;;1.73;;
14102;SDS011;7129;48.832;12.472;2022-09-09T12:44:20;4.43;;;1.92;;
14102;SDS011;7129;48.832;12.472;2022-09-09T12:49:26;2.63;;;1.75;;
14102;SDS011;7129;48.832;12.472;2022-09-09T12:54:34;1.60;;;1.50;;
14102;SDS011;7129;48.832;12.472;2022-09-09T12:59:38;4.15;;;1.90;;
14102;SDS011;7129;48.832;12.472;2022-09-09T13:04:43;1.77;;;1.30;;
14102;SDS011;7129;48.832;12.472;2022-09-09T13:09:47;1.52;;;1.30;;
14102;SDS011;7129;48.832;12.472;2022-09-09T13:14:50;2.08;;;1.42;;
14102;SDS011;7129;48.832;12.472;2022-09-09T13:19:56;2.92;;;1.73;;
14102;SDS011;7129;48.832;12.472;2022-09-09T13:24:59;1.40;;;1.30;;
14102;SDS011;7129;48.832;12.472;2022-09-09T13:30:22;1.58;;;1.30;;
14102;SDS011;7129;48.832;12.472;2022-09-09T13:35:26;1.80;;;1.27;;
14102;SDS011;7129;48.832;12.472;2022-09-09T13:40:29;3.90;;;1.10;;
14102;SDS011;7129;48.832;12.472;2022-09-09T13:45:31;3.97;;;1.08;;
14102;SDS011;7129;48.832;12.472;2022-09-09T13:50:36;2.97;;;1.20;;
14102;SDS011;7129;48.832;12.472;2022-09-09T13:55:38;1.10;;;1.00;;
14102;SDS011;7129;48.832;12.472;2022-09-09T14:00:40;3.05;;;1.10;;
14102;SDS011;7129;48.832;12.472;2022-09-09T14:05:45;2.53;;;1.20;;
14102;SDS011;7129;48.832;12.472;2022-09-09T14:10:47;3.30;;;1.20;;
14102;SDS011;7129;48.832;12.472;2022-09-09T14:15:48;2.28;;;0.80;;
14102;SDS011;7129;48.832;12.472;2022-09-09T14:20:52;2.72;;;1.30;;
14102;SDS011;7129;48.832;12.472;2022-09-09T14:25:54;2.35;;;1.20;;
14102;SDS011;7129;48.832;12.472;2022-09-09T14:30:58;2.53;;;1.23;;
14102;SDS011;7129;48.832;12.472;2022-09-09T14:36:03;2.17;;;1.20;;
14102;SDS011;7129;48.832;12.472;2022-09-09T14:41:05;2.45;;;1.05;;
14102;SDS011;7129;48.832;12.472;2022-09-09T14:46:08;1.40;;;1.10;;
14102;SDS011;7129;48.832;12.472;2022-09-09T14:51:13;3.58;;;1.20;;
14102;SDS011;7129;48.832;12.472;2022-09-09T14:56:18;2.28;;;1.00;;
14102;SDS011;7129;48.832;12.472;2022-09-09T15:01:22;1.70;;;1.20;;
14102;SDS011;7129;48.832;12.472;2022-09-09T15:06:29;1.35;;;1.10;;
14102;SDS011;7129;48.832;12.472;2022-09-09T15:11:34;1.80;;;1.17;;
14102;SDS011;7129;48.832;12.472;2022-09-09T15:16:38;1.08;;;1.02;;
14102;SDS011;7129;48.832;12.472;2022-09-09T15:21:42;1.58;;;1.00;;
14102;SDS011;7129;48.832;12.472;2022-09-09T15:26:43;1.00;;;0.70;;
14102;SDS011;7129;48.832;12.472;2022-09-09T15:31:45;1.60;;;0.90;;
14102;SDS011;7129;48.832;12.472;2022-09-09T15:36:49;2.10;;;0.95;;
14102;SDS011;7129;48.832;12.472;2022-09-09T15:41:51;1.38;;;0.95;;
14102;SDS011;7129;48.832;12.472;2022-09-09T15:46:53;0.80;;;0.80;;
14102;SDS011;7129;48.832;12.472;2022-09-09T15:51:56;1.88;;;0.90;;
14102;SDS011;7129;48.832;12.472;2022-09-09T15:57:03;2.78;;;0.90;;
14102;SDS011;7129;48.832;12.472;2022-09-09T16:02:06;0.80;;;0.80;;
14102;SDS011;7129;48.832;12.472;2022-09-09T16:07:11;0.80;;;0.80;;
14102;SDS011;7129;48.832;12.472;2022-09-09T16:12:13;1.27;;;0.70;;
14102;SDS011;7129;48.832;12.472;2022-09-09T16:17:16;1.10;;;1.00;;
14102;SDS011;7129;48.832;12.472;2022-09-09T16:22:20;0.85;;;0.70;;
14102;SDS011;7129;48.832;12.472;2022-09-09T16:27:22;1.55;;;0.80;;
14102;SDS011;7129;48.832;12.472;2022-09-09T16:32:24;1.38;;;0.98;;
14102;SDS011;7129;48.832;12.472;2022-09-09T16:37:27;1.92;;;0.80;;
14102;SDS011;7129;48.832;12.472;2022-09-09T16:42:30;0.88;;;0.82;;
14102;SDS011;7129;48.832;12.472;2022-09-09T16:47:32;1.75;;;0.93;;
14102;SDS011;7129;48.832;12.472;2022-09-09T16:52:35;0.82;;;0.80;;
14102;SDS011;7129;48.832;12.472;2022-09-09T16:57:37;1.58;;;0.82;;
14102;SDS011;7129;48.832;12.472;2022-09-09T17:02:39;0.85;;;0.85;;
14102;SDS011;7129;48.832;12.472;2022-09-09T17:07:42;2.22;;;0.85;;
14102;SDS011;7129;48.832;12.472;2022-09-09T17:12:44;1.17;;;0.70;;
14102;SDS011;7129;48.832;12.472;2022-09-09T17:17:46;3.50;;;1.00;;
14102;SDS011;7129;48.832;12.472;2022-09-09T17:22:50;2.97;;;1.15;;
14102;SDS011;7129;48.832;12.472;2022-09-09T17:27:52;2.95;;;0.90;;
14102;SDS011;7129;48.832;12.472;2022-09-09T17:32:54;1.75;;;0.80;;
14102;SDS011;7129;48.832;12.472;2022-09-09T17:37:57;1.27;;;0.82;;
14102;SDS011;7129;48.832;12.472;2022-09-09T17:42:59;0.68;;;0.68;;
14102;SDS011;7129;48.832;12.472;2022-09-09T17:48:01;1.88;;;0.75;;
14102;SDS011;7129;48.832;12.472;2022-09-09T17:53:05;1.02;;;0.70;;
14102;SDS011;7129;48.832;12.472;2022-09-09T17:58:07;1.45;;;0.80;;
14102;SDS011;7129;48.832;12.472;2022-09-09T18:03:09;0.88;;;0.88;;
14102;SDS011;7129;48.832;12.472;2022-09-09T18:08:12;0.80;;;0.80;;
14102;SDS011;7129;48.832;12.472;2022-09-09T18:13:14;2.33;;;1.00;;
14102;SDS011;7129;48.832;12.472;2022-09-09T18:18:16;1.88;;;0.90;;
14102;SDS011;7129;48.832;12.472;2022-09-09T18:23:19;1.38;;;0.90;;
14102;SDS011;7129;48.832;12.472;2022-09-09T18:28:21;1.15;;;0.90;;
14102;SDS011;7129;48.832;12.472;2022-09-09T18:33:23;3.42;;;1.00;;
14102;SDS011;7129;48.832;12.472;2022-09-09T18:38:26;1.85;;;1.10;;
14102;SDS011;7129;48.832;12.472;2022-09-09T18:43:28;1.23;;;1.00;;
14102;SDS011;7129;48.832;12.472;2022-09-09T18:48:31;1.42;;;0.90;;
14102;SDS011;7129;48.832;12.472;2022-09-09T18:53:34;1.33;;;0.70;;
14102;SDS011;7129;48.832;12.472;2022-09-09T18:58:36;1.10;;;0.90;;
14102;SDS011;7129;48.832;12.472;2022-09-09T19:03:38;3.92;;;1.00;;
14102;SDS011;7129;48.832;12.472;2022-09-09T19:08:44;3.45;;;1.10;;
14102;SDS011;7129;48.832;12.472;2022-09-09T19:13:48;3.10;;;1.10;;
14102;SDS011;7129;48.832;12.472;2022-09-09T19:18:50;1.55;;;1.02;;
14102;SDS011;7129;48.832;12.472;2022-09-09T19:23:54;2.17;;;0.95;;
14102;SDS011;7129;48.832;12.472;2022-09-09T19:28:59;1.15;;;1.05;;
14102;SDS011;7129;48.832;12.472;2022-09-09T19:34:01;1.10;;;1.00;;
14102;SDS011;7129;48.832;12.472;2022-09-09T19:39:05;2.45;;;1.13;;
14102;SDS011;7129;48.832;12.472;2022-09-09T19:44:10;2.35;;;1.10;;
14102;SDS011;7129;48.832;12.472;2022-09-09T19:49:13;1.58;;;0.88;;
14102;SDS011;7129;48.832;12.472;2022-09-09T19:54:17;0.75;;;0.73;;
14102;SDS011;7129;48.832;12.472;2022-09-09T19:59:20;0.80;;;0.80;;
14102;SDS011;7129;48.832;12.472;2022-09-09T20:04:22;0.88;;;0.77;;
14102;SDS011;7129;48.832;12.472;2022-09-09T20:09:25;2.20;;;0.88;;
14102;SDS011;7129;48.832;12.472;2022-09-09T20:14:29;1.00;;;0.90;;
14102;SDS011;7129;48.832;12.472;2022-09-09T20:19:31;0.95;;;0.80;;
14102;SDS011;7129;48.832;12.472;2022-09-09T20:24:34;0.70;;;0.70;;
14102;SDS011;7129;48.832;12.472;2022-09-09T20:29:37;0.80;;;0.80;;
14102;SDS011;7129;48.832;12.472;2022-09-09T20:34:38;0.82;;;0.82;;
14102;SDS011;7129;48.832;12.472;2022-09-09T20:39:41;1.75;;;0.80;;
14102;SDS011;7129;48.832;12.472;2022-09-09T20:44:45;2.00;;;0.80;;
14102;SDS011;7129;48.832;12.472;2022-09-09T20:49:47;1.17;;;0.60;;
14102;SDS011;7129;48.832;12.472;2022-09-09T20:54:50;1.83;;;0.80;;
14102;SDS011;7129;48.832;12.472;2022-09-09T20:59:53;1.27;;;0.80;;
14102;SDS011;7129;48.832;12.472;2022-09-09T21:04:55;0.57;;;0.57;;
14102;SDS011;7129;48.832;12.472;2022-09-09T21:09:58;3.03;;;1.00;;
14102;SDS011;7129;48.832;12.472;2022-09-09T21:15:01;2.25;;;1.10;;
14102;SDS011;7129;48.832;12.472;2022-09-09T21:20:03;1.05;;;0.95;;
14102;SDS011;7129;48.832;12.472;2022-09-09T21:25:09;2.90;;;1.00;;
14102;SDS011;7129;48.832;12.472;2022-09-09T21:30:12;0.90;;;0.90;;
14102;SDS011;7129;48.832;12.472;2022-09-09T21:35:14;3.22;;;0.90;;
14102;SDS011;7129;48.832;12.472;2022-09-09T21:40:19;1.42;;;1.00;;
14102;SDS011;7129;48.832;12.472;2022-09-09T21:45:21;2.85;;;1.23;;
14102;SDS011;7129;48.832;12.472;2022-09-09T21:50:24;2.95;;;1.20;;
14102;SDS011;7129;48.832;12.472;2022-09-09T21:55:27;1.27;;;1.20;;
14102;SDS011;7129;48.832;12.472;2022-09-09T22:00:47;1.15;;;1.15;;
14102;SDS011;7129;48.832;12.472;2022-09-09T22:05:49;1.45;;;1.30;;
14102;SDS011;7129;48.832;12.472;2022-09-09T22:10:53;0.98;;;0.93;;
14102;SDS011;7129;48.832;12.472;2022-09-09T22:15:55;1.58;;;1.48;;
14102;SDS011;7129;48.832;12.472;2022-09-09T22:20:57;4.20;;;2.05;;
14102;SDS011;7129;48.832;12.472;2022-09-09T22:26:01;1.88;;;1.40;;
14102;SDS011;7129;48.832;12.472;2022-09-09T22:31:03;1.67;;;1.35;;
14102;SDS011;7129;48.832;12.472;2022-09-09T22:36:06;3.95;;;1.70;;
14102;SDS011;7129;48.832;12.472;2022-09-09T22:41:09;1.40;;;1.30;;
14102;SDS011;7129;48.832;12.472;2022-09-09T22:46:13;1.95;;;1.40;;
14102;SDS011;7129;48.832;12.472;2022-09-09T22:51:15;3.53;;;1.35;;
14102;SDS011;7129;48.832;12.472;2022-09-09T22:56:18;1.60;;;1.40;;
14102;SDS011;7129;48.832;12.472;2022-09-09T23:01:21;1.73;;;1.50;;
14102;SDS011;7129;48.832;12.472;2022-09-09T23:06:24;1.77;;;1.67;;
14102;SDS011;7129;48.832;12.472;2022-09-09T23:11:30;3.53;;;1.63;;
14102;SDS011;7129;48.832;12.472;2022-09-09T23:16:34;1.67;;;1.52;;
14102;SDS011;7129;48.832;12.472;2022-09-09T23:21:38;1.23;;;1.13;;
14102;SDS011;7129;48.832;12.472;2022-09-09T23:26:42;3.85;;;1.65;;
14102;SDS011;7129;48.832;12.472;2022-09-09T23:31:45;1.60;;;1.40;;
14102;SDS011;7129;48.832;12.472;2022-09-09T23:36:47;1.45;;;1.35;;
14102;SDS011;7129;48.832;12.472;2022-09-09T23:41:50;2.53;;;1.60;;
14102;SDS011;7129;48.832;12.472;2022-09-09T23:46:52;2.13;;;1.60;;
14102;SDS011;7129;48.832;12.472;2022-09-09T23:51:54;1.42;;;1.08;;
14102;SDS011;7129;48.832;12.472;2022-09-09T23:56:58;2.55;;;1.40;;
